sensor_id;sensor_type;location;lat;lon;timestamp;pressure;altitude;pressure_sealevel;temperature;humidity
64192;BME280;50497;50.720;-2.084;2022-08-21T00:00:27;101692.28;;;15.01;100.00
64192;BME280;50497;50.720;-2.084;2022-08-21T00:03:03;101692.50;;;14.96;100.00
64192;BME280;50497;50.720;-2.084;2022-08-21T00:05:35;101688.94;;;14.96;100.00
64192;BME280;50497;50.720;-2.084;2022-08-21T00:08:00;101685.34;;;14.95;100.00
64192;BME280;50497;50.720;-2.084;2022-08-21T00:10:27;101679.09;;;14.95;100.00
64192;BME280;50497;50.720;-2.084;2022-08-21T00:12:53;101673.06;;;14.90;100.00
64192;BME280;50497;50.720;-2.084;2022-08-21T00:15:24;101677.41;;;14.92;100.00
64192;BME280;50497;50.720;-2.084;2022-08-21T00:17:52;101672.22;;;14.89;100.00
64192;BME280;50497;50.720;-2.084;2022-08-21T00:20:19;101656.44;;;14.82;100.00
64192;BME280;50497;50.720;-2.084;2022-08-21T00:22:45;101671.47;;;14.86;100.00
64192;BME280;50497;50.720;-2.084;2022-08-21T00:25:11;101667.84;;;14.87;100.00
64192;BME280;50497;50.720;-2.084;2022-08-21T00:27:37;101668.00;;;14.84;100.00
64192;BME280;50497;50.720;-2.084;2022-08-21T00:30:05;101668.13;;;14.81;100.00
64192;BME280;50497;50.720;-2.084;2022-08-21T00:32:31;101664.22;;;14.88;100.00
64192;BME280;50497;50.720;-2.084;2022-08-21T00:34:59;101666.81;;;14.89;100.00
64192;BME280;50497;50.720;-2.084;2022-08-21T00:37:25;101667.69;;;14.90;100.00
64192;BME280;50497;50.720;-2.084;2022-08-21T00:39:50;101657.28;;;14.82;100.00
64192;BME280;50497;50.720;-2.084;2022-08-21T00:42:16;101657.53;;;14.77;100.00
64192;BME280;50497;50.720;-2.084;2022-08-21T00:44:47;101652.31;;;14.74;100.00
64192;BME280;50497;50.720;-2.084;2022-08-21T00:47:18;101664.88;;;14.74;100.00
64192;BME280;50497;50.720;-2.084;2022-08-21T00:49:44;101667.56;;;14.74;100.00
64192;BME280;50497;50.720;-2.084;2022-08-21T00:52:14;101674.09;;;14.70;100.00
64192;BME280;50497;50.720;-2.084;2022-08-21T00:54:41;101667.97;;;14.66;100.00
64192;BME280;50497;50.720;-2.084;2022-08-21T00:57:09;101667.34;;;14.61;100.00
64192;BME280;50497;50.720;-2.084;2022-08-21T00:59:37;101670.81;;;14.63;100.00
64192;BME280;50497;50.720;-2.084;2022-08-21T01:02:05;101669.22;;;14.59;100.00
64192;BME280;50497;50.720;-2.084;2022-08-21T01:04:32;101660.38;;;14.55;100.00
64192;BME280;50497;50.720;-2.084;2022-08-21T01:06:58;101661.13;;;14.59;100.00
64192;BME280;50497;50.720;-2.084;2022-08-21T01:09:24;101665.59;;;14.60;100.00
64192;BME280;50497;50.720;-2.084;2022-08-21T01:11:50;101665.50;;;14.62;100.00
64192;BME280;50497;50.720;-2.084;2022-08-21T01:14:15;101667.59;;;14.55;100.00
64192;BME280;50497;50.720;-2.084;2022-08-21T01:16:46;101680.81;;;14.61;100.00
64192;BME280;50497;50.720;-2.084;2022-08-21T01:19:12;101670.91;;;14.62;100.00
64192;BME280;50497;50.720;-2.084;2022-08-21T01:21:39;101669.78;;;14.66;100.00
64192;BME280;50497;50.720;-2.084;2022-08-21T01:24:05;101673.28;;;14.68;100.00
64192;BME280;50497;50.720;-2.084;2022-08-21T01:26:33;101673.03;;;14.72;100.00
64192;BME280;50497;50.720;-2.084;2022-08-21T01:29:35;101670.34;;;14.72;100.00
64192;BME280;50497;50.720;-2.084;2022-08-21T01:32:16;101674.09;;;14.87;100.00
64192;BME280;50497;50.720;-2.084;2022-08-21T01:34:45;101670.22;;;14.93;100.00
64192;BME280;50497;50.720;-2.084;2022-08-21T01:37:11;101655.88;;;14.92;100.00
64192;BME280;50497;50.720;-2.084;2022-08-21T01:39:37;101668.09;;;15.00;100.00
64192;BME280;50497;50.720;-2.084;2022-08-21T01:42:04;101650.00;;;15.02;100.00
64192;BME280;50497;50.720;-2.084;2022-08-21T01:44:30;101648.69;;;14.93;100.00
64192;BME280;50497;50.720;-2.084;2022-08-21T01:46:58;101650.19;;;14.81;100.00
64192;BME280;50497;50.720;-2.084;2022-08-21T01:49:23;101652.53;;;14.70;100.00
64192;BME280;50497;50.720;-2.084;2022-08-21T01:51:49;101657.28;;;14.65;100.00
64192;BME280;50497;50.720;-2.084;2022-08-21T01:54:14;101659.38;;;14.58;100.00
64192;BME280;50497;50.720;-2.084;2022-08-21T01:56:46;101647.41;;;14.46;100.00
64192;BME280;50497;50.720;-2.084;2022-08-21T01:59:12;101655.63;;;14.43;100.00
64192;BME280;50497;50.720;-2.084;2022-08-21T02:01:38;101654.66;;;14.44;100.00
64192;BME280;50497;50.720;-2.084;2022-08-21T02:04:08;101650.16;;;14.45;100.00
64192;BME280;50497;50.720;-2.084;2022-08-21T02:06:34;101653.56;;;14.48;100.00
64192;BME280;50497;50.720;-2.084;2022-08-21T02:09:06;101647.06;;;14.52;100.00
64192;BME280;50497;50.720;-2.084;2022-08-21T02:11:34;101649.63;;;14.55;100.00
64192;BME280;50497;50.720;-2.084;2022-08-21T02:14:00;101645.88;;;14.59;100.00
64192;BME280;50497;50.720;-2.084;2022-08-21T02:16:26;101638.34;;;14.66;100.00
64192;BME280;50497;50.720;-2.084;2022-08-21T02:18:52;101642.53;;;14.72;100.00
64192;BME280;50497;50.720;-2.084;2022-08-21T02:21:22;101632.72;;;14.71;100.00
64192;BME280;50497;50.720;-2.084;2022-08-21T02:23:47;101634.94;;;14.80;100.00
64192;BME280;50497;50.720;-2.084;2022-08-21T02:26:13;101624.31;;;14.77;100.00
64192;BME280;50497;50.720;-2.084;2022-08-21T02:28:39;101617.94;;;14.80;100.00
64192;BME280;50497;50.720;-2.084;2022-08-21T02:31:08;101617.38;;;14.73;100.00
64192;BME280;50497;50.720;-2.084;2022-08-21T02:33:34;101616.47;;;14.72;100.00
64192;BME280;50497;50.720;-2.084;2022-08-21T02:36:01;101611.41;;;14.66;100.00
64192;BME280;50497;50.720;-2.084;2022-08-21T02:38:31;101621.34;;;14.47;100.00
64192;BME280;50497;50.720;-2.084;2022-08-21T02:40:58;101617.88;;;14.26;100.00
64192;BME280;50497;50.720;-2.084;2022-08-21T02:43:25;101618.75;;;14.26;100.00
64192;BME280;50497;50.720;-2.084;2022-08-21T02:45:52;101627.84;;;14.23;100.00
64192;BME280;50497;50.720;-2.084;2022-08-21T02:48:21;101637.81;;;14.21;100.00
64192;BME280;50497;50.720;-2.084;2022-08-21T02:50:52;101628.94;;;14.19;100.00
64192;BME280;50497;50.720;-2.084;2022-08-21T02:53:18;101623.72;;;14.16;100.00
64192;BME280;50497;50.720;-2.084;2022-08-21T02:55:45;101620.94;;;13.99;100.00
64192;BME280;50497;50.720;-2.084;2022-08-21T02:58:17;101629.81;;;14.01;100.00
64192;BME280;50497;50.720;-2.084;2022-08-21T03:00:44;101639.72;;;14.00;100.00
64192;BME280;50497;50.720;-2.084;2022-08-21T03:03:10;101651.06;;;14.07;100.00
64192;BME280;50497;50.720;-2.084;2022-08-21T03:05:36;101645.31;;;14.15;100.00
64192;BME280;50497;50.720;-2.084;2022-08-21T03:08:06;101642.84;;;14.10;100.00
64192;BME280;50497;50.720;-2.084;2022-08-21T03:10:46;101634.69;;;14.12;100.00
64192;BME280;50497;50.720;-2.084;2022-08-21T03:13:13;101632.28;;;14.05;100.00
64192;BME280;50497;50.720;-2.084;2022-08-21T03:15:40;101633.25;;;14.04;100.00
64192;BME280;50497;50.720;-2.084;2022-08-21T03:18:07;101634.19;;;14.03;100.00
64192;BME280;50497;50.720;-2.084;2022-08-21T03:20:34;101620.88;;;13.81;100.00
64192;BME280;50497;50.720;-2.084;2022-08-21T03:23:01;101620.47;;;13.51;100.00
64192;BME280;50497;50.720;-2.084;2022-08-21T03:25:29;101621.81;;;13.61;100.00
64192;BME280;50497;50.720;-2.084;2022-08-21T03:27:57;101621.88;;;13.60;100.00
64192;BME280;50497;50.720;-2.084;2022-08-21T03:30:23;101611.47;;;13.52;100.00
64192;BME280;50497;50.720;-2.084;2022-08-21T03:32:48;101617.13;;;13.46;100.00
64192;BME280;50497;50.720;-2.084;2022-08-21T03:35:14;101625.13;;;13.47;100.00
64192;BME280;50497;50.720;-2.084;2022-08-21T03:37:40;101625.13;;;13.47;100.00
64192;BME280;50497;50.720;-2.084;2022-08-21T03:40:08;101636.31;;;13.38;100.00
64192;BME280;50497;50.720;-2.084;2022-08-21T03:42:34;101639.00;;;13.38;100.00
64192;BME280;50497;50.720;-2.084;2022-08-21T03:45:00;101625.38;;;13.41;100.00
64192;BME280;50497;50.720;-2.084;2022-08-21T03:47:26;101623.00;;;13.35;100.00
64192;BME280;50497;50.720;-2.084;2022-08-21T03:49:51;101624.78;;;13.35;100.00
64192;BME280;50497;50.720;-2.084;2022-08-21T03:52:17;101632.06;;;13.33;100.00
64192;BME280;50497;50.720;-2.084;2022-08-21T03:54:44;101635.00;;;13.26;100.00
64192;BME280;50497;50.720;-2.084;2022-08-21T03:57:10;101642.75;;;13.34;100.00
64192;BME280;50497;50.720;-2.084;2022-08-21T03:59:37;101631.59;;;13.43;100.00
64192;BME280;50497;50.720;-2.084;2022-08-21T04:02:04;101629.69;;;13.45;100.00
64192;BME280;50497;50.720;-2.084;2022-08-21T04:04:30;101622.78;;;13.40;100.00
64192;BME280;50497;50.720;-2.084;2022-08-21T04:06:57;101632.25;;;13.48;100.00
64192;BME280;50497;50.720;-2.084;2022-08-21T04:09:23;101644.19;;;13.41;100.00
64192;BME280;50497;50.720;-2.084;2022-08-21T04:11:48;101632.66;;;13.39;100.00
64192;BME280;50497;50.720;-2.084;2022-08-21T04:14:15;101639.53;;;13.46;100.00
64192;BME280;50497;50.720;-2.084;2022-08-21T04:16:42;101650.28;;;13.46;100.00
64192;BME280;50497;50.720;-2.084;2022-08-21T04:19:08;101643.34;;;13.41;100.00
64192;BME280;50497;50.720;-2.084;2022-08-21T04:21:35;101645.56;;;13.52;100.00
64192;BME280;50497;50.720;-2.084;2022-08-21T04:24:01;101652.13;;;13.44;100.00
64192;BME280;50497;50.720;-2.084;2022-08-21T04:26:27;101637.81;;;13.44;100.00
64192;BME280;50497;50.720;-2.084;2022-08-21T04:28:57;101631.66;;;13.42;100.00
64192;BME280;50497;50.720;-2.084;2022-08-21T04:31:24;101633.25;;;13.46;100.00
64192;BME280;50497;50.720;-2.084;2022-08-21T04:33:49;101625.13;;;13.47;100.00
64192;BME280;50497;50.720;-2.084;2022-08-21T04:36:16;101616.06;;;13.50;100.00
64192;BME280;50497;50.720;-2.084;2022-08-21T04:38:41;101623.22;;;13.49;100.00
64192;BME280;50497;50.720;-2.084;2022-08-21T04:41:07;101625.03;;;13.49;100.00
64192;BME280;50497;50.720;-2.084;2022-08-21T04:43:32;101637.94;;;13.61;100.00
64192;BME280;50497;50.720;-2.084;2022-08-21T04:45:58;101641.56;;;13.60;100.00
64192;BME280;50497;50.720;-2.084;2022-08-21T04:48:25;101646.09;;;13.60;100.00
64192;BME280;50497;50.720;-2.084;2022-08-21T04:51:01;101652.25;;;13.62;100.00
64192;BME280;50497;50.720;-2.084;2022-08-21T04:53:41;101644.47;;;13.56;100.00
64192;BME280;50497;50.720;-2.084;2022-08-21T04:56:40;101646.09;;;13.60;100.00
64192;BME280;50497;50.720;-2.084;2022-08-21T04:59:07;101654.28;;;13.57;100.00
64192;BME280;50497;50.720;-2.084;2022-08-21T05:01:37;101656.44;;;13.48;100.00
64192;BME280;50497;50.720;-2.084;2022-08-21T05:04:04;101671.34;;;13.56;100.00
64192;BME280;50497;50.720;-2.084;2022-08-21T05:06:34;101675.00;;;13.55;100.00
64192;BME280;50497;50.720;-2.084;2022-08-21T05:09:00;101682.22;;;13.53;100.00
64192;BME280;50497;50.720;-2.084;2022-08-21T05:11:26;101691.13;;;13.55;100.00
64192;BME280;50497;50.720;-2.084;2022-08-21T05:13:52;101682.53;;;13.46;100.00
64192;BME280;50497;50.720;-2.084;2022-08-21T05:16:18;101689.16;;;13.38;100.00
64192;BME280;50497;50.720;-2.084;2022-08-21T05:18:43;101693.16;;;13.27;100.00
64192;BME280;50497;50.720;-2.084;2022-08-21T05:21:08;101694.78;;;13.33;100.00
64192;BME280;50497;50.720;-2.084;2022-08-21T05:23:35;101695.28;;;13.41;100.00
64192;BME280;50497;50.720;-2.084;2022-08-21T05:26:05;101684.94;;;13.32;100.00
64192;BME280;50497;50.720;-2.084;2022-08-21T05:28:31;101702.19;;;13.26;100.00
64192;BME280;50497;50.720;-2.084;2022-08-21T05:30:57;101700.03;;;13.35;100.00
64192;BME280;50497;50.720;-2.084;2022-08-21T05:33:26;101685.63;;;13.37;100.00
64192;BME280;50497;50.720;-2.084;2022-08-21T05:35:53;101690.78;;;13.42;100.00
64192;BME280;50497;50.720;-2.084;2022-08-21T05:38:21;101693.69;;;13.37;100.00
64192;BME280;50497;50.720;-2.084;2022-08-21T05:40:46;101687.22;;;13.41;100.00
64192;BME280;50497;50.720;-2.084;2022-08-21T05:43:12;101678.16;;;13.44;100.00
64192;BME280;50497;50.720;-2.084;2022-08-21T05:45:38;101679.47;;;13.54;100.00
64192;BME280;50497;50.720;-2.084;2022-08-21T05:48:10;101674.84;;;13.58;100.00
64192;BME280;50497;50.720;-2.084;2022-08-21T05:50:36;101675.66;;;13.60;100.00
64192;BME280;50497;50.720;-2.084;2022-08-21T05:53:03;101673.50;;;13.68;100.00
64192;BME280;50497;50.720;-2.084;2022-08-21T05:55:29;101667.94;;;13.71;100.00
64192;BME280;50497;50.720;-2.084;2022-08-21T05:57:54;101664.59;;;13.66;100.00
64192;BME280;50497;50.720;-2.084;2022-08-21T06:00:20;101663.53;;;13.70;100.00
64192;BME280;50497;50.720;-2.084;2022-08-21T06:02:48;101660.56;;;13.76;100.00
64192;BME280;50497;50.720;-2.084;2022-08-21T06:05:15;101646.97;;;13.79;100.00
64192;BME280;50497;50.720;-2.084;2022-08-21T06:07:40;101647.19;;;13.75;100.00
64192;BME280;50497;50.720;-2.084;2022-08-21T06:10:06;101663.75;;;13.84;100.00
64192;BME280;50497;50.720;-2.084;2022-08-21T06:12:32;101663.53;;;13.89;100.00
64192;BME280;50497;50.720;-2.084;2022-08-21T06:14:57;101681.00;;;13.99;100.00
64192;BME280;50497;50.720;-2.084;2022-08-21T06:17:24;101676.97;;;14.10;100.00
64192;BME280;50497;50.720;-2.084;2022-08-21T06:19:53;101662.03;;;14.02;100.00
64192;BME280;50497;50.720;-2.084;2022-08-21T06:22:20;101652.94;;;14.05;100.00
64192;BME280;50497;50.720;-2.084;2022-08-21T06:24:45;101646.47;;;14.09;100.00
64192;BME280;50497;50.720;-2.084;2022-08-21T06:27:12;101633.31;;;14.03;100.00
64192;BME280;50497;50.720;-2.084;2022-08-21T06:29:38;101636.53;;;14.11;100.00
64192;BME280;50497;50.720;-2.084;2022-08-21T06:32:05;101612.38;;;14.10;100.00
64192;BME280;50497;50.720;-2.084;2022-08-21T06:34:38;101604.31;;;14.10;100.00
64192;BME280;50497;50.720;-2.084;2022-08-21T06:37:05;101599.72;;;14.12;100.00
64192;BME280;50497;50.720;-2.084;2022-08-21T06:39:31;101609.00;;;14.23;100.00
64192;BME280;50497;50.720;-2.084;2022-08-21T06:41:56;101597.88;;;14.31;100.00
64192;BME280;50497;50.720;-2.084;2022-08-21T06:44:22;101591.50;;;14.32;100.00
64192;BME280;50497;50.720;-2.084;2022-08-21T06:46:47;101583.78;;;14.44;100.00
64192;BME280;50497;50.720;-2.084;2022-08-21T06:49:13;101586.41;;;14.45;100.00
64192;BME280;50497;50.720;-2.084;2022-08-21T06:51:39;101593.06;;;14.55;100.00
64192;BME280;50497;50.720;-2.084;2022-08-21T06:54:05;101602.22;;;14.70;100.00
64192;BME280;50497;50.720;-2.084;2022-08-21T06:56:31;101589.59;;;14.71;100.00
64192;BME280;50497;50.720;-2.084;2022-08-21T06:58:58;101594.84;;;14.74;100.00
64192;BME280;50497;50.720;-2.084;2022-08-21T07:01:25;101599.47;;;14.89;100.00
64192;BME280;50497;50.720;-2.084;2022-08-21T07:03:51;101601.97;;;14.92;100.00
64192;BME280;50497;50.720;-2.084;2022-08-21T07:06:17;101595.81;;;15.08;100.00
64192;BME280;50497;50.720;-2.084;2022-08-21T07:08:45;101592.94;;;14.93;100.00
64192;BME280;50497;50.720;-2.084;2022-08-21T07:11:17;101609.13;;;15.11;100.00
64192;BME280;50497;50.720;-2.084;2022-08-21T07:13:43;101620.56;;;15.32;100.00
64192;BME280;50497;50.720;-2.084;2022-08-21T07:16:09;101614.78;;;15.40;100.00
64192;BME280;50497;50.720;-2.084;2022-08-21T07:18:36;101606.75;;;15.56;100.00
64192;BME280;50497;50.720;-2.084;2022-08-21T07:21:06;101599.88;;;15.66;100.00
64192;BME280;50497;50.720;-2.084;2022-08-21T07:23:36;101606.19;;;15.98;100.00
64192;BME280;50497;50.720;-2.084;2022-08-21T07:26:02;101607.00;;;16.16;100.00
64192;BME280;50497;50.720;-2.084;2022-08-21T07:28:29;101613.25;;;16.17;100.00
64192;BME280;50497;50.720;-2.084;2022-08-21T07:30:57;101625.09;;;16.30;100.00
64192;BME280;50497;50.720;-2.084;2022-08-21T07:33:24;101620.75;;;16.43;100.00
64192;BME280;50497;50.720;-2.084;2022-08-21T07:35:54;101638.16;;;16.54;100.00
64192;BME280;50497;50.720;-2.084;2022-08-21T07:38:20;101631.69;;;16.56;100.00
64192;BME280;50497;50.720;-2.084;2022-08-21T07:40:47;101616.97;;;16.46;100.00
64192;BME280;50497;50.720;-2.084;2022-08-21T07:43:14;101615.66;;;16.53;100.00
64192;BME280;50497;50.720;-2.084;2022-08-21T07:45:42;101622.97;;;16.67;100.00
64192;BME280;50497;50.720;-2.084;2022-08-21T07:48:07;101624.50;;;16.71;100.00
64192;BME280;50497;50.720;-2.084;2022-08-21T07:50:33;101629.81;;;16.89;100.00
64192;BME280;50497;50.720;-2.084;2022-08-21T07:52:58;101624.16;;;16.93;100.00
64192;BME280;50497;50.720;-2.084;2022-08-21T07:55:28;101629.41;;;17.11;100.00
64192;BME280;50497;50.720;-2.084;2022-08-21T07:57:53;101618.72;;;18.10;100.00
64192;BME280;50497;50.720;-2.084;2022-08-21T08:00:22;101626.00;;;18.77;100.00
64192;BME280;50497;50.720;-2.084;2022-08-21T08:02:54;101611.25;;;19.60;100.00
64192;BME280;50497;50.720;-2.084;2022-08-21T08:05:25;101608.47;;;20.11;100.00
64192;BME280;50497;50.720;-2.084;2022-08-21T08:07:51;101611.91;;;19.89;100.00
64192;BME280;50497;50.720;-2.084;2022-08-21T08:10:16;101622.03;;;20.24;100.00
64192;BME280;50497;50.720;-2.084;2022-08-21T08:12:42;101618.09;;;19.65;100.00
64192;BME280;50497;50.720;-2.084;2022-08-21T08:15:16;101614.19;;;19.69;100.00
64192;BME280;50497;50.720;-2.084;2022-08-21T08:17:42;101617.09;;;19.92;100.00
64192;BME280;50497;50.720;-2.084;2022-08-21T08:20:14;101624.28;;;19.29;100.00
64192;BME280;50497;50.720;-2.084;2022-08-21T08:22:42;101633.97;;;19.46;100.00
64192;BME280;50497;50.720;-2.084;2022-08-21T08:25:08;101635.25;;;19.66;100.00
64192;BME280;50497;50.720;-2.084;2022-08-21T08:27:36;101635.91;;;19.56;100.00
64192;BME280;50497;50.720;-2.084;2022-08-21T08:30:03;101620.16;;;19.62;100.00
64192;BME280;50497;50.720;-2.084;2022-08-21T08:32:29;101622.44;;;19.68;100.00
64192;BME280;50497;50.720;-2.084;2022-08-21T08:34:54;101625.06;;;19.82;100.00
64192;BME280;50497;50.720;-2.084;2022-08-21T08:37:20;101638.66;;;19.82;100.00
64192;BME280;50497;50.720;-2.084;2022-08-21T08:39:49;101639.34;;;19.97;100.00
64192;BME280;50497;50.720;-2.084;2022-08-21T08:42:25;101624.56;;;20.01;100.00
64192;BME280;50497;50.720;-2.084;2022-08-21T08:45:21;101635.03;;;19.94;100.00
64192;BME280;50497;50.720;-2.084;2022-08-21T08:47:56;101630.22;;;19.98;100.00
64192;BME280;50497;50.720;-2.084;2022-08-21T08:53:05;101631.88;;;19.88;100.00
64192;BME280;50497;50.720;-2.084;2022-08-21T08:55:36;101624.06;;;19.96;100.00
64192;BME280;50497;50.720;-2.084;2022-08-21T08:58:07;101621.25;;;19.85;100.00
64192;BME280;50497;50.720;-2.084;2022-08-21T09:00:34;101622.00;;;19.87;100.00
64192;BME280;50497;50.720;-2.084;2022-08-21T09:03:03;101633.91;;;19.97;100.00
64192;BME280;50497;50.720;-2.084;2022-08-21T09:05:43;101626.50;;;20.12;100.00
64192;BME280;50497;50.720;-2.084;2022-08-21T09:11:07;101617.44;;;20.48;100.00
64192;BME280;50497;50.720;-2.084;2022-08-21T09:17:02;101619.25;;;20.61;100.00
64192;BME280;50497;50.720;-2.084;2022-08-21T09:19:43;101614.19;;;20.43;100.00
64192;BME280;50497;50.720;-2.084;2022-08-21T09:25:28;101618.56;;;20.46;100.00
64192;BME280;50497;50.720;-2.084;2022-08-21T09:27:58;101613.16;;;20.33;100.00
64192;BME280;50497;50.720;-2.084;2022-08-21T09:30:29;101603.44;;;20.18;100.00
64192;BME280;50497;50.720;-2.084;2022-08-21T09:32:56;101598.09;;;20.29;100.00
64192;BME280;50497;50.720;-2.084;2022-08-21T09:35:22;101605.34;;;20.28;100.00
64192;BME280;50497;50.720;-2.084;2022-08-21T09:43:17;101591.53;;;20.31;100.00
64192;BME280;50497;50.720;-2.084;2022-08-21T09:45:45;101602.06;;;20.36;100.00
64192;BME280;50497;50.720;-2.084;2022-08-21T09:48:18;101601.78;;;19.91;100.00
64192;BME280;50497;50.720;-2.084;2022-08-21T09:50:45;101608.84;;;19.68;100.00
64192;BME280;50497;50.720;-2.084;2022-08-21T09:53:20;101616.03;;;19.30;100.00
64192;BME280;50497;50.720;-2.084;2022-08-21T09:58:44;101619.97;;;19.39;100.00
64192;BME280;50497;50.720;-2.084;2022-08-21T10:01:16;101618.75;;;19.56;100.00
64192;BME280;50497;50.720;-2.084;2022-08-21T10:03:42;101620.59;;;19.55;100.00
64192;BME280;50497;50.720;-2.084;2022-08-21T10:06:08;101624.28;;;19.54;100.00
64192;BME280;50497;50.720;-2.084;2022-08-21T10:08:38;101611.03;;;19.50;100.00
64192;BME280;50497;50.720;-2.084;2022-08-21T10:11:16;101597.38;;;19.38;100.00
64192;BME280;50497;50.720;-2.084;2022-08-21T10:17:27;101593.31;;;19.70;100.00
64192;BME280;50497;50.720;-2.084;2022-08-21T10:20:04;101589.34;;;20.12;100.00
64192;BME280;50497;50.720;-2.084;2022-08-21T10:25:18;101591.19;;;20.36;100.00
64192;BME280;50497;50.720;-2.084;2022-08-21T10:36:25;101605.75;;;20.59;100.00
64192;BME280;50497;50.720;-2.084;2022-08-21T10:39:21;101606.56;;;20.48;100.00
64192;BME280;50497;50.720;-2.084;2022-08-21T10:45:11;101602.44;;;22.06;100.00
64192;BME280;50497;50.720;-2.084;2022-08-21T10:48:05;101587.47;;;23.70;100.00
64192;BME280;50497;50.720;-2.084;2022-08-21T10:50:52;101598.69;;;23.15;100.00
64192;BME280;50497;50.720;-2.084;2022-08-21T10:56:20;101600.47;;;23.05;100.00
64192;BME280;50497;50.720;-2.084;2022-08-21T10:59:21;101592.19;;;23.89;100.00
64192;BME280;50497;50.720;-2.084;2022-08-21T11:01:54;101582.22;;;24.29;100.00
64192;BME280;50497;50.720;-2.084;2022-08-21T11:07:00;101591.44;;;23.87;100.00
64192;BME280;50497;50.720;-2.084;2022-08-21T11:09:27;101596.22;;;22.91;100.00
64192;BME280;50497;50.720;-2.084;2022-08-21T11:12:03;101599.91;;;22.69;100.00
64192;BME280;50497;50.720;-2.084;2022-08-21T11:14:47;101596.06;;;22.72;100.00
64192;BME280;50497;50.720;-2.084;2022-08-21T11:17:23;101602.91;;;22.00;100.00
64192;BME280;50497;50.720;-2.084;2022-08-21T11:20:10;101601.44;;;22.07;100.00
64192;BME280;50497;50.720;-2.084;2022-08-21T11:23:06;101600.13;;;21.78;100.00
64192;BME280;50497;50.720;-2.084;2022-08-21T11:26:23;101604.81;;;21.54;100.00
64192;BME280;50497;50.720;-2.084;2022-08-21T11:28:55;101606.28;;;21.58;100.00
64192;BME280;50497;50.720;-2.084;2022-08-21T11:34:46;101614.72;;;21.77;100.00
64192;BME280;50497;50.720;-2.084;2022-08-21T11:43:31;101588.53;;;24.39;100.00
64192;BME280;50497;50.720;-2.084;2022-08-21T11:51:59;101583.59;;;24.13;100.00
64192;BME280;50497;50.720;-2.084;2022-08-21T11:54:39;101584.75;;;24.11;100.00
64192;BME280;50497;50.720;-2.084;2022-08-21T11:57:34;101594.22;;;23.97;100.00
64192;BME280;50497;50.720;-2.084;2022-08-21T12:00:27;101590.25;;;24.50;100.00
64192;BME280;50497;50.720;-2.084;2022-08-21T12:02:58;101584.59;;;23.72;100.00
64192;BME280;50497;50.720;-2.084;2022-08-21T12:05:31;101558.47;;;24.39;100.00
64192;BME280;50497;50.720;-2.084;2022-08-21T12:11:08;101585.06;;;25.15;100.00
64192;BME280;50497;50.720;-2.084;2022-08-21T12:13:52;101574.81;;;25.64;100.00
64192;BME280;50497;50.720;-2.084;2022-08-21T12:19:13;101583.41;;;24.65;100.00
64192;BME280;50497;50.720;-2.084;2022-08-21T12:21:52;101582.78;;;24.32;100.00
64192;BME280;50497;50.720;-2.084;2022-08-21T12:27:00;101588.66;;;24.28;100.00
64192;BME280;50497;50.720;-2.084;2022-08-21T12:29:35;101592.97;;;23.18;100.00
64192;BME280;50497;50.720;-2.084;2022-08-21T12:34:40;101583.63;;;22.79;100.00
64192;BME280;50497;50.720;-2.084;2022-08-21T12:37:19;101591.16;;;22.54;100.00
64192;BME280;50497;50.720;-2.084;2022-08-21T12:39:49;101596.94;;;22.40;100.00
64192;BME280;50497;50.720;-2.084;2022-08-21T12:42:31;101578.75;;;22.06;100.00
64192;BME280;50497;50.720;-2.084;2022-08-21T12:45:11;101579.78;;;23.23;100.00
64192;BME280;50497;50.720;-2.084;2022-08-21T12:47:51;101572.63;;;23.94;100.00
64192;BME280;50497;50.720;-2.084;2022-08-21T12:50:26;101582.22;;;24.87;100.00
64192;BME280;50497;50.720;-2.084;2022-08-21T12:52:59;101580.78;;;24.83;100.00
64192;BME280;50497;50.720;-2.084;2022-08-21T12:55:33;101576.91;;;24.76;100.00
64192;BME280;50497;50.720;-2.084;2022-08-21T12:57:59;101571.53;;;24.45;100.00
64192;BME280;50497;50.720;-2.084;2022-08-21T13:00:27;101566.41;;;24.62;100.00
64192;BME280;50497;50.720;-2.084;2022-08-21T13:02:54;101563.94;;;25.45;100.00
64192;BME280;50497;50.720;-2.084;2022-08-21T13:05:43;101581.25;;;24.79;100.00
64192;BME280;50497;50.720;-2.084;2022-08-21T13:08:11;101576.53;;;23.70;100.00
64192;BME280;50497;50.720;-2.084;2022-08-21T13:10:39;101565.50;;;24.32;100.00
64192;BME280;50497;50.720;-2.084;2022-08-21T13:13:08;101561.34;;;24.67;100.00
64192;BME280;50497;50.720;-2.084;2022-08-21T13:15:40;101565.53;;;24.61;100.00
64192;BME280;50497;50.720;-2.084;2022-08-21T13:18:06;101551.13;;;24.49;100.00
64192;BME280;50497;50.720;-2.084;2022-08-21T13:20:36;101551.09;;;24.01;100.00
64192;BME280;50497;50.720;-2.084;2022-08-21T13:23:15;101552.56;;;24.34;100.00
64192;BME280;50497;50.720;-2.084;2022-08-21T13:25:43;101547.94;;;24.25;100.00
64192;BME280;50497;50.720;-2.084;2022-08-21T13:28:15;101558.03;;;24.44;100.00
64192;BME280;50497;50.720;-2.084;2022-08-21T13:30:46;101552.56;;;24.73;100.00
64192;BME280;50497;50.720;-2.084;2022-08-21T13:33:14;101553.47;;;24.64;100.00
64192;BME280;50497;50.720;-2.084;2022-08-21T13:38:24;101541.03;;;25.74;93.29
64192;BME280;50497;50.720;-2.084;2022-08-21T13:40:59;101529.03;;;25.00;93.55
64192;BME280;50497;50.720;-2.084;2022-08-21T13:43:31;101537.72;;;25.42;92.66
64192;BME280;50497;50.720;-2.084;2022-08-21T13:46:01;101527.66;;;25.33;89.34
64192;BME280;50497;50.720;-2.084;2022-08-21T13:48:30;101547.09;;;24.83;90.37
64192;BME280;50497;50.720;-2.084;2022-08-21T13:51:03;101545.06;;;24.85;91.10
64192;BME280;50497;50.720;-2.084;2022-08-21T13:53:43;101531.97;;;25.26;87.65
64192;BME280;50497;50.720;-2.084;2022-08-21T13:57:03;101535.09;;;25.51;87.42